createdAt,value
2018-09-05T00:00:41.604Z,101212.36
2018-09-05T00:03:10.352Z,101214.30
2018-09-05T00:05:39.133Z,101217.49
2018-09-05T00:08:08.566Z,101210.66
2018-09-05T00:10:38.843Z,101213.25
2018-09-05T00:13:07.929Z,101217.48
2018-09-05T00:15:37.612Z,101213.65
2018-09-05T00:18:07.412Z,101205.66
2018-09-05T00:20:36.742Z,101210.09
2018-09-05T00:23:08.855Z,101216.08
2018-09-05T00:25:38.067Z,101215.64
2018-09-05T00:28:08.581Z,101214.37
2018-09-05T00:33:37.817Z,101213.12
2018-09-05T00:36:08.072Z,101211.68
2018-09-05T00:38:37.884Z,101211.05
2018-09-05T00:41:07.365Z,101210.92
2018-09-05T00:43:36.735Z,101212.14
2018-09-05T00:46:06.083Z,101213.99
2018-09-05T00:48:35.240Z,101212.20
2018-09-05T00:51:04.728Z,101212.20
2018-09-05T00:53:33.739Z,101212.20
2018-09-05T00:56:32.983Z,101211.38
2018-09-05T00:59:02.543Z,101214.06
2018-09-05T01:01:32.502Z,101205.48
2018-09-05T01:04:01.295Z,101216.23
2018-09-05T01:06:30.141Z,101213.77
2018-09-05T01:08:59.780Z,101218.09
2018-09-05T01:11:28.636Z,101209.23
2018-09-05T01:13:57.975Z,101215.82
2018-09-05T01:16:26.779Z,101215.70
2018-09-05T01:18:55.543Z,101210.20
2018-09-05T01:21:24.359Z,101206.55
2018-09-05T01:23:53.867Z,101212.34
2018-09-05T01:26:22.719Z,101210.94
2018-09-05T01:28:52.192Z,101211.41
2018-09-05T01:31:21.305Z,101218.95
2018-09-05T01:34:18.820Z,101212.63
2018-09-05T01:36:48.574Z,101216.15
2018-09-05T01:39:17.364Z,101216.20
2018-09-05T01:41:46.839Z,101220.75
2018-09-05T01:44:15.763Z,101223.49
2018-09-05T01:46:44.517Z,101225.62
2018-09-05T01:49:13.470Z,101223.00
2018-09-05T01:51:42.248Z,101228.14
2018-09-05T01:54:11.134Z,101223.80
2018-09-05T01:56:39.975Z,101231.34
2018-09-05T01:59:09.941Z,101235.04
2018-09-05T02:01:39.412Z,101234.53
2018-09-05T02:04:08.344Z,101234.02
2018-09-05T02:06:37.614Z,101232.36
2018-09-05T02:09:11.580Z,101227.50
2018-09-05T02:11:41.005Z,101232.22
2018-09-05T02:14:10.480Z,101228.70
2018-09-05T02:16:39.429Z,101221.48
2018-09-05T02:19:08.530Z,101233.56
2018-09-05T02:21:37.755Z,101232.22
2018-09-05T02:24:07.571Z,101234.08
2018-09-05T02:26:37.200Z,101232.22
2018-09-05T02:29:07.059Z,101231.20
2018-09-05T02:31:36.573Z,101236.56
2018-09-05T02:34:06.472Z,101232.55
2018-09-05T02:36:36.003Z,101240.27
2018-09-05T02:39:07.412Z,101237.27
2018-09-05T02:41:36.479Z,101235.92
2018-09-05T02:44:10.520Z,101240.78
2018-09-05T02:46:39.505Z,101245.00
2018-09-05T02:49:08.469Z,101240.66
2018-09-05T02:51:38.476Z,101242.83
2018-09-05T02:54:07.850Z,101245.19
2018-09-05T02:56:37.107Z,101244.55
2018-09-05T02:59:07.099Z,101240.09
2018-09-05T03:01:36.881Z,101244.81
2018-09-05T03:04:06.292Z,101243.66
2018-09-05T03:06:35.417Z,101250.55
2018-09-05T03:09:07.648Z,101253.11
2018-09-05T03:11:36.875Z,101250.80
2018-09-05T03:14:06.130Z,101254.08
2018-09-05T03:16:35.282Z,101249.59
2018-09-05T03:19:04.726Z,101252.84
2018-09-05T03:21:33.603Z,101249.73
2018-09-05T03:24:02.894Z,101245.70
2018-09-05T03:26:31.681Z,101245.56
2018-09-05T03:29:00.910Z,101250.61
2018-09-05T03:31:29.749Z,101251.11
2018-09-05T03:33:59.244Z,101251.48
2018-09-05T03:36:28.619Z,101246.49
2018-09-05T03:38:57.454Z,101239.98
2018-09-05T03:41:26.731Z,101250.70
2018-09-05T03:43:55.491Z,101243.89
2018-09-05T03:46:24.328Z,101244.77
2018-09-05T03:48:53.163Z,101252.49
2018-09-05T03:51:21.941Z,101249.50
2018-09-05T03:53:51.688Z,101246.17
2018-09-05T03:56:20.603Z,101247.52
2018-09-05T03:58:50.083Z,101250.20
2018-09-05T04:01:19.900Z,101251.42
2018-09-05T04:03:49.088Z,101250.27
2018-09-05T04:06:21.223Z,101250.78
2018-09-05T04:08:52.920Z,101247.59
2018-09-05T04:11:21.730Z,101250.45
2018-09-05T04:13:51.174Z,101256.97
2018-09-05T04:16:20.178Z,101257.63
2018-09-05T04:18:49.657Z,101255.88
2018-09-05T04:21:18.679Z,101257.88
2018-09-05T04:23:49.617Z,101253.69
2018-09-05T04:26:19.612Z,101258.69
2018-09-05T04:28:49.497Z,101258.83
2018-09-05T04:31:18.545Z,101258.96
2018-09-05T04:33:48.077Z,101259.66
2018-09-05T04:36:16.886Z,101258.00
2018-09-05T04:38:46.263Z,101269.55
2018-09-05T04:41:14.996Z,101268.39
2018-09-05T04:43:43.889Z,101268.53
2018-09-05T04:46:12.779Z,101274.47
2018-09-05T04:48:41.573Z,101273.41
2018-09-05T04:51:10.487Z,101270.27
2018-09-05T04:53:39.482Z,101269.39
2018-09-05T04:56:08.347Z,101266.33
2018-09-05T04:58:38.952Z,101270.68
2018-09-05T05:01:08.280Z,101275.13
2018-09-05T05:03:38.474Z,101281.28
2018-09-05T05:06:07.827Z,101283.12
2018-09-05T05:08:38.492Z,101280.66
2018-09-05T05:11:08.398Z,101280.52
2018-09-05T05:13:37.960Z,101281.02
2018-09-05T05:16:07.715Z,101282.89
2018-09-05T05:18:37.492Z,101285.42
2018-09-05T05:21:06.781Z,101287.58
2018-09-05T05:23:37.252Z,101285.05
2018-09-05T05:26:06.715Z,101285.56
2018-09-05T05:28:37.270Z,101283.19
2018-09-05T05:31:07.321Z,101288.52
2018-09-05T05:33:38.144Z,101287.64
2018-09-05T05:36:08.199Z,101290.28
2018-09-05T05:38:38.561Z,101287.57
2018-09-05T05:41:07.835Z,101288.73
2018-09-05T05:43:37.395Z,101293.73
2018-09-05T05:46:06.428Z,101292.55
2018-09-05T05:48:36.136Z,101289.91
2018-09-05T05:51:05.679Z,101284.65
2018-09-05T05:53:34.768Z,101285.08
2018-09-05T05:56:03.615Z,101284.28
2018-09-05T05:58:32.995Z,101290.23
2018-09-05T06:01:02.595Z,101282.05
2018-09-05T06:03:31.957Z,101287.87
2018-09-05T06:06:00.906Z,101287.78
2018-09-05T06:08:30.761Z,101286.73
2018-09-05T06:10:59.875Z,101282.36
2018-09-05T06:13:28.816Z,101291.67
2018-09-05T06:15:57.985Z,101288.70
2018-09-05T06:18:26.803Z,101286.61
2018-09-05T06:20:55.657Z,101283.14
2018-09-05T06:23:25.429Z,101285.88
2018-09-05T06:25:54.243Z,101283.41
2018-09-05T06:28:23.506Z,101280.73
2018-09-05T06:30:52.600Z,101278.26
2018-09-05T06:33:21.975Z,101280.95
2018-09-05T06:35:51.504Z,101277.66
2018-09-05T06:38:21.143Z,101284.22
2018-09-05T06:40:50.594Z,101281.50
2018-09-05T06:43:19.564Z,101280.55
2018-09-05T06:45:48.600Z,101277.45
2018-09-05T06:48:17.532Z,101285.21
2018-09-05T06:50:46.452Z,101282.97
2018-09-05T06:53:15.627Z,101282.70
2018-09-05T06:55:44.420Z,101284.20
2018-09-05T06:58:14.103Z,101286.36
2018-09-05T07:00:42.899Z,101285.66
2018-09-05T07:03:12.700Z,101284.11
2018-09-05T07:05:41.527Z,101282.57
2018-09-05T07:08:10.309Z,101283.12
2018-09-05T07:10:39.844Z,101282.39
2018-09-05T07:13:08.613Z,101281.28
2018-09-05T07:15:38.323Z,101283.94
2018-09-05T07:18:07.797Z,101276.88
2018-09-05T07:20:37.000Z,101275.52
2018-09-05T07:23:07.076Z,101278.49
2018-09-05T07:25:35.955Z,101287.98
2018-09-05T07:28:05.995Z,101285.55
2018-09-05T07:30:34.848Z,101284.53
2018-09-05T07:33:04.094Z,101284.42
2018-09-05T07:35:33.326Z,101290.66
2018-09-05T07:38:02.545Z,101288.08
2018-09-05T07:40:31.275Z,101296.08
2018-09-05T07:43:00.066Z,101286.57
2018-09-05T07:45:28.908Z,101295.66
2018-09-05T07:47:57.741Z,101287.82
2018-09-05T07:50:26.629Z,101287.34
2018-09-05T07:52:55.533Z,101280.64
2018-09-05T07:55:25.016Z,101281.02
2018-09-05T07:57:54.800Z,101281.53
2018-09-05T08:00:23.596Z,101280.92
2018-09-05T08:02:52.932Z,101275.25
2018-09-05T08:05:21.793Z,101284.43
2018-09-05T08:07:50.822Z,101280.02
2018-09-05T08:10:20.424Z,101282.55
2018-09-05T08:12:49.541Z,101283.13
2018-09-05T08:15:18.471Z,101278.41
2018-09-05T08:17:47.584Z,101277.76
2018-09-05T08:20:16.307Z,101282.25
2018-09-05T08:22:45.803Z,101283.30
2018-09-05T08:25:14.551Z,101279.50
2018-09-05T08:27:45.079Z,101285.69
2018-09-05T08:30:13.844Z,101283.98
2018-09-05T08:32:43.387Z,101274.08
2018-09-05T08:35:13.033Z,101279.16
2018-09-05T08:37:42.858Z,101279.59
2018-09-05T08:40:11.510Z,101286.29
2018-09-05T08:42:40.464Z,101278.50
2018-09-05T08:45:09.474Z,101282.39
2018-09-05T08:47:38.390Z,101280.80
2018-09-05T08:50:07.708Z,101284.63
2018-09-05T08:52:37.092Z,101279.80
2018-09-05T08:55:06.997Z,101280.10
2018-09-05T08:57:37.333Z,101283.92
2018-09-05T09:00:07.525Z,101282.30
2018-09-05T09:02:37.403Z,101284.78
2018-09-05T09:05:07.304Z,101283.94
2018-09-05T09:07:36.395Z,101281.73
2018-09-05T09:10:06.976Z,101284.22
2018-09-05T09:12:36.541Z,101288.91
2018-09-05T09:15:07.356Z,101280.48
2018-09-05T09:17:36.600Z,101281.88
2018-09-05T09:20:05.740Z,101279.16
2018-09-05T09:22:35.732Z,101276.17
2018-09-05T09:25:19.440Z,101276.16
2018-09-05T09:27:49.267Z,101274.23
2018-09-05T09:30:18.063Z,101276.22
2018-09-05T09:32:48.535Z,101270.20
2018-09-05T09:35:49.145Z,101276.19
2018-09-05T09:38:18.683Z,101270.20
2018-09-05T09:40:48.162Z,101269.38
2018-09-05T09:43:16.924Z,101266.63
2018-09-05T09:45:45.743Z,101267.73
2018-09-05T09:48:14.502Z,101269.12
2018-09-05T09:50:44.274Z,101269.40
2018-09-05T09:53:13.005Z,101268.86
2018-09-05T09:55:41.807Z,101271.30
2018-09-05T09:58:11.141Z,101262.02
2018-09-05T10:00:44.877Z,101259.52
2018-09-05T10:03:19.327Z,101267.74
2018-09-05T10:05:53.251Z,101265.84
2018-09-05T10:10:34.261Z,101269.67
2018-09-05T10:13:09.447Z,101260.06
2018-09-05T10:15:43.419Z,101258.98
2018-09-05T10:18:17.276Z,101252.70
2018-09-05T10:20:46.130Z,101258.44
2018-09-05T10:23:15.486Z,101259.00
2018-09-05T10:25:44.353Z,101258.98
2018-09-05T10:28:13.774Z,101258.45
2018-09-05T10:30:42.644Z,101254.59
2018-09-05T10:33:11.973Z,101254.31
2018-09-05T10:35:41.360Z,101257.88
2018-09-05T10:38:10.724Z,101257.06
2018-09-05T10:40:39.501Z,101248.30
2018-09-05T10:43:08.487Z,101259.25
2018-09-05T10:45:37.899Z,101254.33
2018-09-05T10:48:08.245Z,101251.84
2018-09-05T10:50:37.842Z,101254.55
2018-09-05T10:53:07.830Z,101246.83
2018-09-05T10:55:37.361Z,101255.27
2018-09-05T10:58:07.527Z,101249.20
2018-09-05T11:00:36.794Z,101241.75
2018-09-05T11:03:07.105Z,101240.37
2018-09-05T11:05:36.381Z,101236.48
2018-09-05T11:08:06.010Z,101242.28
2018-09-05T11:10:36.356Z,101243.92
2018-09-05T11:13:05.492Z,101236.27
2018-09-05T11:15:36.094Z,101237.08
2018-09-05T11:18:05.775Z,101233.73
2018-09-05T11:20:34.940Z,101241.33
2018-09-05T11:23:04.268Z,101235.62
2018-09-05T11:25:33.218Z,101240.48
2018-09-05T11:28:02.925Z,101236.86
2018-09-05T11:30:31.767Z,101244.31
2018-09-05T11:33:01.086Z,101246.33
2018-09-05T11:35:30.366Z,101252.38
2018-09-05T11:37:59.842Z,101255.37
2018-09-05T11:40:28.709Z,101248.72
2018-09-05T11:42:57.578Z,101245.89
2018-09-05T11:46:29.663Z,101243.67
2018-09-05T11:48:58.457Z,101248.46
2018-09-05T11:51:27.302Z,101247.09
2018-09-05T11:53:56.037Z,101249.36
2018-09-05T11:56:24.811Z,101242.28
2018-09-05T11:58:54.405Z,101241.20
2018-09-05T12:01:24.060Z,101244.78
2018-09-05T12:03:52.848Z,101239.89
2018-09-05T12:06:21.671Z,101235.23
2018-09-05T12:08:51.195Z,101232.49
2018-09-05T12:11:20.124Z,101235.21
2018-09-05T12:13:49.174Z,101239.38
2018-09-05T12:16:18.102Z,101237.23
2018-09-05T12:18:46.896Z,101237.52
2018-09-05T12:21:16.071Z,101237.83
2018-09-05T12:23:45.595Z,101239.98
2018-09-05T12:26:14.486Z,101230.11
2018-09-05T12:28:44.041Z,101235.31
2018-09-05T12:31:13.733Z,101226.27
2018-09-05T12:33:43.150Z,101231.42
2018-09-05T12:36:12.531Z,101233.63
2018-09-05T12:38:41.368Z,101232.63
2018-09-05T12:41:10.490Z,101228.00
2018-09-05T12:43:39.947Z,101228.55
2018-09-05T12:46:08.775Z,101228.01
2018-09-05T12:48:38.395Z,101227.73
2018-09-05T12:51:08.465Z,101230.42
2018-09-05T12:53:37.753Z,101220.25
2018-09-05T12:56:07.635Z,101219.19
2018-09-05T12:58:37.291Z,101222.98
2018-09-05T13:01:06.899Z,101224.08
2018-09-05T13:03:36.813Z,101221.02
2018-09-05T13:06:06.755Z,101220.24
2018-09-05T13:08:37.227Z,101216.95
2018-09-05T13:11:06.708Z,101221.62
2018-09-05T13:13:35.701Z,101214.27
2018-09-05T13:16:04.696Z,101214.86
2018-09-05T13:18:34.007Z,101211.30
2018-09-05T13:21:02.923Z,101206.67
2018-09-05T13:23:33.811Z,101206.95
2018-09-05T13:26:02.590Z,101210.20
2018-09-05T13:28:31.972Z,101210.52
2018-09-05T13:31:00.844Z,101211.58
2018-09-05T13:33:30.129Z,101210.23
2018-09-05T13:35:59.807Z,101213.22
2018-09-05T13:38:30.656Z,101216.50
2018-09-05T13:41:00.978Z,101210.71
2018-09-05T13:43:29.991Z,101214.81
2018-09-05T13:45:58.833Z,101219.20
2018-09-05T13:48:27.624Z,101211.25
2018-09-05T13:50:57.160Z,101213.13
2018-09-05T13:53:25.947Z,101213.13
2018-09-05T13:55:54.803Z,101208.69
2018-09-05T13:58:24.254Z,101207.58
2018-09-05T14:00:53.016Z,101207.52
2018-09-05T14:03:22.477Z,101205.88
2018-09-05T14:05:52.115Z,101213.30
2018-09-05T14:08:21.311Z,101209.66
2018-09-05T14:10:51.620Z,101205.83
2018-09-05T14:13:20.656Z,101211.87
2018-09-05T14:15:49.664Z,101203.07
2018-09-05T14:18:19.236Z,101204.17
2018-09-05T14:20:48.024Z,101203.96
2018-09-05T14:23:17.524Z,101199.03
2018-09-05T14:25:46.314Z,101203.98
2018-09-05T14:28:15.804Z,101198.25
2018-09-05T14:30:44.598Z,101198.27
2018-09-05T14:33:13.981Z,101200.79
2018-09-05T14:35:43.301Z,101201.89
2018-09-05T14:38:12.834Z,101204.94
2018-09-05T14:40:42.196Z,101202.48
2018-09-05T14:43:10.988Z,101203.89
2018-09-05T14:45:40.412Z,101198.38
2018-09-05T14:48:09.271Z,101209.06
2018-09-05T14:50:38.953Z,101203.89
2018-09-05T14:53:09.949Z,101204.73
2018-09-05T14:55:38.818Z,101197.64
2018-09-05T14:58:08.907Z,101197.91
2018-09-05T15:00:38.029Z,101193.80
2018-09-05T15:03:10.577Z,101196.00
2018-09-05T15:05:40.116Z,101192.44
2018-09-05T15:08:09.789Z,101188.88
2018-09-05T15:10:41.206Z,101191.06
2018-09-05T15:13:10.889Z,101191.89
2018-09-05T15:15:40.934Z,101189.70
2018-09-05T15:18:10.344Z,101197.06
2018-09-05T15:20:39.086Z,101194.35
2018-09-05T15:23:09.560Z,101199.28
2018-09-05T15:25:39.120Z,101198.22
2018-09-05T15:28:08.542Z,101198.20
2018-09-05T15:30:38.065Z,101198.77
2018-09-05T15:33:08.397Z,101199.06
2018-09-05T15:35:38.082Z,101201.26
2018-09-05T15:38:07.932Z,101198.51
2018-09-05T15:40:37.585Z,101198.22
2018-09-05T15:43:07.290Z,101197.38
2018-09-05T15:45:36.861Z,101201.77
2018-09-05T15:48:06.285Z,101205.05
2018-09-05T15:50:38.599Z,101201.20
2018-09-05T15:53:09.991Z,101197.64
2018-09-05T15:55:38.960Z,101196.81
2018-09-05T15:58:08.860Z,101193.28
2018-09-05T16:00:39.020Z,101192.72
2018-09-05T16:03:08.500Z,101193.27
2018-09-05T16:05:37.671Z,101197.09
2018-09-05T16:08:07.588Z,101192.99
2018-09-05T16:10:37.938Z,101194.60
2018-09-05T16:13:07.444Z,101200.88
2018-09-05T16:15:37.405Z,101189.13
2018-09-05T16:18:10.217Z,101196.25
2018-09-05T16:20:39.001Z,101190.49
2018-09-05T16:23:08.447Z,101187.47
2018-09-05T16:25:38.051Z,101187.73
2018-09-05T16:28:08.310Z,101192.91
2018-09-05T16:30:37.577Z,101191.27
2018-09-05T16:33:07.782Z,101184.97
2018-09-05T16:35:38.170Z,101190.38
2018-09-05T16:38:08.277Z,101183.80
2018-09-05T16:40:37.759Z,101185.46
2018-09-05T16:43:07.441Z,101191.75
2018-09-05T16:45:37.127Z,101189.80
2018-09-05T16:48:06.459Z,101187.91
2018-09-05T16:50:36.521Z,101192.53
2018-09-05T16:53:05.879Z,101194.97
2018-09-05T16:55:35.212Z,101192.48
2018-09-05T16:58:05.203Z,101187.84
2018-09-05T17:00:33.967Z,101190.83
2018-09-05T17:03:17.981Z,101185.06
2018-09-05T17:05:47.310Z,101195.42
2018-09-05T17:08:16.083Z,101192.97
2018-09-05T17:10:45.357Z,101195.95
2018-09-05T17:13:14.119Z,101195.11
2018-09-05T17:15:42.965Z,101194.78
2018-09-05T17:18:12.712Z,101193.92
2018-09-05T17:20:41.536Z,101192.75
2018-09-05T17:23:10.820Z,101193.22
2018-09-05T17:25:39.671Z,101192.87
2018-09-05T17:28:09.133Z,101189.52
2018-09-05T17:30:38.856Z,101190.53
2018-09-05T17:33:08.540Z,101195.34
2018-09-05T17:35:38.971Z,101190.02
2018-09-05T17:38:08.920Z,101186.92
2018-09-05T17:40:38.045Z,101190.89
2018-09-05T17:43:07.341Z,101193.27
2018-09-05T17:45:36.653Z,101194.81
2018-09-05T17:48:05.827Z,101190.70
2018-09-05T17:50:34.826Z,101196.58
2018-09-05T17:53:18.474Z,101197.87
2018-09-05T17:55:47.379Z,101194.78
2018-09-05T17:58:17.012Z,101195.03
2018-09-05T18:00:45.845Z,101194.42
2018-09-05T18:03:15.309Z,101193.81
2018-09-05T18:05:44.155Z,101197.57
2018-09-05T18:08:13.080Z,101201.64
2018-09-05T18:10:42.307Z,101197.20
2018-09-05T18:13:11.065Z,101199.06
2018-09-05T18:15:40.661Z,101198.16
2018-09-05T18:18:10.109Z,101199.72
2018-09-05T18:20:38.959Z,101195.31
2018-09-05T18:23:09.392Z,101195.84
2018-09-05T18:25:45.003Z,101198.23
2018-09-05T18:28:14.627Z,101200.88
2018-09-05T18:30:44.029Z,101199.41
2018-09-05T18:33:13.578Z,101197.14
2018-09-05T18:35:43.319Z,101197.91
2018-09-05T18:38:12.507Z,101195.64
2018-09-05T18:40:41.281Z,101195.27
2018-09-05T18:43:10.109Z,101192.48
2018-09-05T18:45:38.948Z,101195.87
2018-09-05T18:48:08.364Z,101191.91
2018-09-05T18:50:37.775Z,101196.08
2018-09-05T18:53:12.481Z,101196.47
2018-09-05T18:55:42.746Z,101197.13
2018-09-05T18:58:12.166Z,101202.39
2018-09-05T19:00:41.015Z,101205.25
2018-09-05T19:03:11.131Z,101198.38
2018-09-05T19:05:41.403Z,101204.46
2018-09-05T19:08:10.214Z,101202.64
2018-09-05T19:10:39.611Z,101205.58
2018-09-05T19:13:08.404Z,101207.89
2018-09-05T19:15:37.884Z,101216.27
2018-09-05T19:18:07.664Z,101211.43
2018-09-05T19:20:38.373Z,101218.52
2018-09-05T19:23:08.139Z,101219.05
2018-09-05T19:25:38.438Z,101216.56
2018-09-05T19:28:08.085Z,101222.23
2018-09-05T19:30:37.435Z,101213.86
2018-09-05T19:33:07.416Z,101214.97
2018-09-05T19:35:38.248Z,101214.15
2018-09-05T19:38:08.569Z,101210.13
2018-09-05T19:40:37.950Z,101209.66
2018-09-05T19:43:07.161Z,101207.49
2018-09-05T19:45:36.371Z,101206.19
2018-09-05T19:48:05.551Z,101209.49
2018-09-05T19:50:34.626Z,101203.53
2018-09-05T19:53:03.620Z,101205.18
2018-09-05T19:55:32.496Z,101201.88
2018-09-05T19:58:02.183Z,101203.71
2018-09-05T20:00:30.970Z,101208.00
2018-09-05T20:03:00.472Z,101203.34
2018-09-05T20:05:29.322Z,101204.94
2018-09-05T20:07:58.126Z,101204.11
2018-09-05T20:10:27.505Z,101207.06
2018-09-05T20:12:56.368Z,101203.52
2018-09-05T20:15:25.828Z,101200.81
2018-09-05T20:17:55.304Z,101197.80
2018-09-05T20:20:24.198Z,101197.21
2018-09-05T20:22:54.208Z,101197.31
2018-09-05T20:25:23.635Z,101197.66
2018-09-05T20:27:53.015Z,101203.39
2018-09-05T20:30:22.775Z,101203.86
2018-09-05T20:32:52.502Z,101203.34
2018-09-05T20:35:22.082Z,101199.59
2018-09-05T20:37:51.525Z,101203.72
2018-09-05T20:40:20.511Z,101199.27
2018-09-05T20:42:49.568Z,101204.11
2018-09-05T20:45:18.578Z,101200.27
2018-09-05T20:47:47.372Z,101202.22
2018-09-05T20:50:16.462Z,101200.92
2018-09-05T20:52:45.235Z,101198.77
2018-09-05T20:55:14.040Z,101203.43
2018-09-05T20:57:43.604Z,101204.25
2018-09-05T21:00:12.412Z,101202.66
2018-09-05T21:02:41.883Z,101195.58
2018-09-05T21:05:11.322Z,101197.53
2018-09-05T21:07:40.116Z,101201.60
2018-09-05T21:10:09.460Z,101205.67
2018-09-05T21:12:38.432Z,101204.02
2018-09-05T21:15:07.685Z,101198.59
2018-09-05T21:17:37.439Z,101197.83
2018-09-05T21:20:06.985Z,101203.25
2018-09-05T21:22:36.920Z,101203.78
2018-09-05T21:25:07.220Z,101198.30
2018-09-05T21:27:36.622Z,101201.01
2018-09-05T21:30:06.633Z,101201.19
2018-09-05T21:32:36.451Z,101192.48
2018-09-05T21:35:06.287Z,101193.55
2018-09-05T21:37:36.460Z,101192.42
2018-09-05T21:40:05.881Z,101189.77
2018-09-05T21:42:34.868Z,101188.18
2018-09-05T21:45:34.278Z,101188.18
2018-09-05T21:48:03.312Z,101183.55
2018-09-05T21:50:32.183Z,101191.98
2018-09-05T21:53:01.291Z,101189.27
2018-09-05T21:55:30.692Z,101191.52
2018-09-05T21:58:00.468Z,101192.63
2018-09-05T22:00:29.447Z,101196.47
2018-09-05T22:02:59.339Z,101200.06
2018-09-05T22:05:28.532Z,101195.23
2018-09-05T22:07:57.451Z,101195.23
2018-09-05T22:10:26.767Z,101202.84
2018-09-05T22:12:55.556Z,101205.26
2018-09-05T22:15:25.008Z,101203.61
2018-09-05T22:17:54.386Z,101204.91
2018-09-05T22:20:23.807Z,101201.30
2018-09-05T22:22:53.091Z,101202.37
2018-09-05T22:25:22.099Z,101203.13
2018-09-05T22:27:51.572Z,101209.39
2018-09-05T22:30:21.235Z,101204.78
2018-09-05T22:32:50.862Z,101206.14
2018-09-05T22:35:20.582Z,101207.50
2018-09-05T22:37:50.249Z,101209.91
2018-09-05T22:40:19.559Z,101205.31
2018-09-05T22:42:59.539Z,101199.59
2018-09-05T22:45:39.335Z,101202.01
2018-09-05T22:48:22.701Z,101201.19
2018-09-05T22:51:07.703Z,101201.19
2018-09-05T22:53:54.478Z,101195.38
2018-09-05T22:57:39.490Z,101196.28
2018-09-05T23:00:23.329Z,101184.89
2018-09-05T23:03:05.660Z,101194.05
2018-09-05T23:08:50.192Z,101193.86
2018-09-05T23:12:00.291Z,101189.93
2018-09-05T23:14:41.185Z,101187.98
2018-09-05T23:18:21.532Z,101187.85
2018-09-05T23:21:19.433Z,101187.45
2018-09-05T23:23:56.854Z,101186.63
2018-09-05T23:26:25.992Z,101178.86
2018-09-05T23:28:55.417Z,101181.58
2018-09-05T23:31:24.577Z,101182.10
2018-09-05T23:33:54.280Z,101176.45
2018-09-05T23:36:24.080Z,101172.16
2018-09-05T23:38:52.949Z,101176.75
2018-09-05T23:41:22.137Z,101175.69
2018-09-05T23:43:51.395Z,101174.03
2018-09-05T23:46:20.397Z,101177.50
2018-09-05T23:48:49.587Z,101174.20
2018-09-05T23:51:18.382Z,101174.40
2018-09-05T23:53:47.210Z,101165.14
2018-09-05T23:56:16.078Z,101173.87
2018-09-05T23:58:45.640Z,101173.91
